createdAt,value
2018-06-30T00:00:30.231Z,18.20
2018-06-30T00:03:04.453Z,18.20
2018-06-30T00:05:39.424Z,18.20
2018-06-30T00:08:13.278Z,18.10
2018-06-30T00:10:47.169Z,18.00
2018-06-30T00:13:21.061Z,17.90
2018-06-30T00:15:54.794Z,17.90
2018-06-30T00:18:28.660Z,17.90
2018-06-30T00:21:02.400Z,17.80
2018-06-30T00:23:36.188Z,17.80
2018-06-30T00:26:10.668Z,17.70
2018-06-30T00:28:44.472Z,17.70
2018-06-30T00:31:18.229Z,17.60
2018-06-30T00:33:52.166Z,17.60
2018-06-30T00:36:25.904Z,17.60
2018-06-30T00:38:59.639Z,17.50
2018-06-30T00:41:33.431Z,17.50
2018-06-30T00:44:08.132Z,17.50
2018-06-30T00:46:41.899Z,17.40
2018-06-30T00:49:15.718Z,17.40
2018-06-30T00:51:50.967Z,17.30
2018-06-30T00:54:27.646Z,17.30
2018-06-30T00:57:01.708Z,17.20
2018-06-30T00:59:36.251Z,17.20
2018-06-30T01:02:10.603Z,17.10
2018-06-30T01:04:44.404Z,17.00
2018-06-30T01:07:18.695Z,16.90
2018-06-30T01:09:52.434Z,16.80
2018-06-30T01:12:26.148Z,16.80
2018-06-30T01:14:59.831Z,16.80
2018-06-30T01:17:33.593Z,16.70
2018-06-30T01:20:08.749Z,16.70
2018-06-30T01:22:42.681Z,16.70
2018-06-30T01:25:16.489Z,16.70
2018-06-30T01:27:50.275Z,16.60
2018-06-30T01:30:24.025Z,16.60
2018-06-30T01:32:57.972Z,16.50
2018-06-30T01:35:31.869Z,16.50
2018-06-30T01:38:05.686Z,16.50
2018-06-30T01:40:39.525Z,16.40
2018-06-30T01:43:13.416Z,16.40
2018-06-30T01:45:47.135Z,16.40
2018-06-30T01:48:21.140Z,16.40
2018-06-30T01:50:54.800Z,16.40
2018-06-30T01:53:28.647Z,16.40
2018-06-30T01:56:02.435Z,16.40
2018-06-30T01:58:36.289Z,16.40
2018-06-30T02:01:10.085Z,16.30
2018-06-30T02:03:43.975Z,16.30
2018-06-30T02:06:17.781Z,16.30
2018-06-30T02:08:51.638Z,16.20
2018-06-30T02:11:25.419Z,16.20
2018-06-30T02:13:59.523Z,16.10
2018-06-30T02:16:33.278Z,16.10
2018-06-30T02:19:07.089Z,16.00
2018-06-30T02:21:40.937Z,16.00
2018-06-30T02:24:14.833Z,16.00
2018-06-30T02:26:48.609Z,16.00
2018-06-30T02:29:22.331Z,16.00
2018-06-30T02:31:56.173Z,16.00
2018-06-30T02:34:29.921Z,16.00
2018-06-30T02:37:03.660Z,15.90
2018-06-30T02:39:37.371Z,15.90
2018-06-30T02:42:11.491Z,15.90
2018-06-30T02:44:45.223Z,15.90
2018-06-30T02:47:19.239Z,15.90
2018-06-30T02:49:52.972Z,15.80
2018-06-30T02:52:26.733Z,15.90
2018-06-30T02:55:00.599Z,15.90
2018-06-30T02:57:34.412Z,15.90
2018-06-30T03:00:08.279Z,15.90
2018-06-30T03:02:42.061Z,15.90
2018-06-30T03:05:15.821Z,15.80
2018-06-30T03:07:49.545Z,15.80
2018-06-30T03:10:23.416Z,15.70
2018-06-30T03:12:57.070Z,15.60
2018-06-30T03:15:30.716Z,15.60
2018-06-30T03:18:04.564Z,15.60
2018-06-30T03:20:38.281Z,15.50
2018-06-30T03:23:11.920Z,15.60
2018-06-30T03:25:45.748Z,15.50
2018-06-30T03:28:19.481Z,15.50
2018-06-30T03:30:53.261Z,15.50
2018-06-30T03:33:27.113Z,15.50
2018-06-30T03:36:00.903Z,15.50
2018-06-30T03:38:34.744Z,15.50
2018-06-30T03:41:08.590Z,15.50
2018-06-30T03:43:42.350Z,15.50
2018-06-30T03:46:16.209Z,15.40
2018-06-30T03:48:50.138Z,15.40
2018-06-30T03:51:23.972Z,15.50
2018-06-30T03:53:58.155Z,15.50
2018-06-30T03:56:31.943Z,15.60
2018-06-30T03:59:05.707Z,15.60
2018-06-30T04:01:39.562Z,15.60
2018-06-30T04:04:13.333Z,15.60
2018-06-30T04:09:20.278Z,15.70
2018-06-30T04:11:53.990Z,15.70
2018-06-30T04:14:27.822Z,15.70
2018-06-30T04:17:01.523Z,15.70
2018-06-30T04:19:35.218Z,15.70
2018-06-30T04:22:09.040Z,15.70
2018-06-30T04:24:42.813Z,15.70
2018-06-30T04:27:16.690Z,15.70
2018-06-30T04:29:50.652Z,15.80
2018-06-30T04:32:24.579Z,15.80
2018-06-30T04:34:58.479Z,15.80
2018-06-30T04:37:32.331Z,15.90
2018-06-30T04:40:06.265Z,15.90
2018-06-30T04:42:40.064Z,15.90
2018-06-30T04:45:13.950Z,16.00
2018-06-30T04:47:47.706Z,16.00
2018-06-30T04:50:21.637Z,16.10
2018-06-30T04:52:55.448Z,16.20
2018-06-30T04:55:29.297Z,16.20
2018-06-30T04:58:03.104Z,16.20
2018-06-30T05:00:36.992Z,16.30
2018-06-30T05:03:10.817Z,16.30
2018-06-30T05:05:44.721Z,16.30
2018-06-30T05:08:18.470Z,16.40
2018-06-30T05:10:52.270Z,16.40
2018-06-30T05:13:26.063Z,16.50
2018-06-30T05:16:00.006Z,16.50
2018-06-30T05:21:06.964Z,16.60
2018-06-30T05:23:40.775Z,16.70
2018-06-30T05:26:14.583Z,16.80
2018-06-30T05:28:48.420Z,16.80
2018-06-30T05:31:22.230Z,16.80
2018-06-30T05:33:56.037Z,16.90
2018-06-30T05:36:29.767Z,16.90
2018-06-30T05:39:03.545Z,16.90
2018-06-30T05:41:37.657Z,17.00
2018-06-30T05:44:11.432Z,17.20
2018-06-30T05:51:51.149Z,17.20
2018-06-30T05:54:35.916Z,17.30
2018-06-30T05:57:14.163Z,17.40
2018-06-30T05:59:51.603Z,17.50
2018-06-30T06:02:29.283Z,17.60
2018-06-30T06:05:08.011Z,17.60
2018-06-30T06:07:41.766Z,17.70
2018-06-30T06:10:15.489Z,17.80
2018-06-30T06:12:49.268Z,17.80
2018-06-30T06:15:23.029Z,17.80
2018-06-30T06:17:56.876Z,17.90
2018-06-30T06:20:30.636Z,18.00
2018-06-30T06:23:04.342Z,18.00
2018-06-30T06:25:38.160Z,18.10
2018-06-30T06:28:11.998Z,18.10
2018-06-30T06:30:45.738Z,18.10
2018-06-30T06:33:19.514Z,18.10
2018-06-30T06:35:53.312Z,18.20
2018-06-30T06:38:27.060Z,18.30
2018-06-30T06:41:01.139Z,18.40
2018-06-30T06:43:34.847Z,18.50
2018-06-30T06:46:08.735Z,18.50
2018-06-30T06:48:42.520Z,18.60
2018-06-30T06:51:16.403Z,18.70
2018-06-30T06:53:50.114Z,18.80
2018-06-30T06:56:23.975Z,18.80
2018-06-30T06:58:58.268Z,18.90
2018-06-30T07:01:32.147Z,18.90
2018-06-30T07:04:05.900Z,19.00
2018-06-30T07:06:39.764Z,19.00
2018-06-30T07:09:14.057Z,19.10
2018-06-30T07:11:47.943Z,19.10
2018-06-30T07:14:21.767Z,19.20
2018-06-30T07:16:55.633Z,19.30
2018-06-30T07:19:29.412Z,19.30
2018-06-30T07:22:03.131Z,19.40
2018-06-30T07:24:36.919Z,19.40
2018-06-30T07:27:11.017Z,19.50
2018-06-30T07:29:44.800Z,19.60
2018-06-30T07:32:18.549Z,19.60
2018-06-30T07:34:52.318Z,19.70
2018-06-30T07:37:26.137Z,19.70
2018-06-30T07:40:00.165Z,19.80
2018-06-30T07:42:33.916Z,19.90
2018-06-30T07:45:07.641Z,20.00
2018-06-30T07:47:41.437Z,20.10
2018-06-30T07:50:15.434Z,20.10
2018-06-30T07:52:49.201Z,20.20
2018-06-30T07:55:22.871Z,20.30
2018-06-30T07:57:56.686Z,20.30
2018-06-30T08:00:30.464Z,20.30
2018-06-30T08:03:04.280Z,20.40
2018-06-30T08:05:38.011Z,20.50
2018-06-30T08:08:11.849Z,20.60
2018-06-30T08:10:45.624Z,20.70
2018-06-30T08:13:19.485Z,20.80
2018-06-30T08:15:53.263Z,20.90
2018-06-30T08:18:27.150Z,20.90
2018-06-30T08:21:00.967Z,21.00
2018-06-30T08:23:34.827Z,21.10
2018-06-30T08:26:08.758Z,21.20
2018-06-30T08:28:42.636Z,21.20
2018-06-30T08:31:16.427Z,21.30
2018-06-30T08:33:50.343Z,21.40
2018-06-30T08:36:25.941Z,21.50
2018-06-30T08:38:59.883Z,21.50
2018-06-30T08:41:33.614Z,21.60
2018-06-30T08:44:07.732Z,21.70
2018-06-30T08:46:41.497Z,21.80
2018-06-30T08:49:15.250Z,21.80
2018-06-30T08:51:49.058Z,21.90
2018-06-30T08:54:22.994Z,22.00
2018-06-30T08:56:56.794Z,22.00
2018-06-30T08:59:30.623Z,22.10
2018-06-30T09:02:04.350Z,22.20
2018-06-30T09:04:38.071Z,22.30
2018-06-30T09:07:11.816Z,22.40
2018-06-30T09:09:45.573Z,22.50
2018-06-30T09:12:19.481Z,22.60
2018-06-30T09:14:53.304Z,22.70
2018-06-30T09:17:27.047Z,22.80
2018-06-30T09:20:00.851Z,22.80
2018-06-30T09:22:34.622Z,22.80
2018-06-30T09:25:08.355Z,22.90
2018-06-30T09:27:42.139Z,23.00
2018-06-30T09:30:15.872Z,23.10
2018-06-30T09:32:49.742Z,23.20
2018-06-30T09:37:56.820Z,23.30
2018-06-30T09:40:30.660Z,23.40
2018-06-30T09:43:04.463Z,23.30
2018-06-30T09:45:38.212Z,23.40
2018-06-30T09:48:13.527Z,23.50
2018-06-30T09:50:48.836Z,23.60
2018-06-30T09:53:23.578Z,23.60
2018-06-30T09:55:58.608Z,23.60
2018-06-30T09:58:33.572Z,23.70
2018-06-30T10:01:08.900Z,23.80
2018-06-30T10:03:43.786Z,24.00
2018-06-30T10:06:19.331Z,24.00
2018-06-30T10:08:55.620Z,24.00
2018-06-30T10:11:30.695Z,24.00
2018-06-30T10:14:06.452Z,24.10
2018-06-30T10:16:42.748Z,24.20
2018-06-30T10:19:16.721Z,24.40
2018-06-30T10:21:51.067Z,24.40
2018-06-30T10:24:25.226Z,24.30
2018-06-30T10:27:00.657Z,24.10
2018-06-30T10:29:35.641Z,24.00
2018-06-30T10:32:10.435Z,23.90
2018-06-30T10:34:44.219Z,23.90
2018-06-30T10:37:19.415Z,24.10
2018-06-30T10:39:53.204Z,24.40
2018-06-30T10:42:27.637Z,24.60
2018-06-30T10:45:01.381Z,24.70
2018-06-30T10:47:35.148Z,24.60
2018-06-30T10:50:10.157Z,24.30
2018-06-30T10:55:20.132Z,24.60
2018-06-30T10:57:54.091Z,24.80
2018-06-30T11:00:30.685Z,24.90
2018-06-30T11:03:06.527Z,25.00
2018-06-30T11:05:43.460Z,25.10
2018-06-30T11:10:54.344Z,25.40
2018-06-30T11:13:31.454Z,25.60
2018-06-30T11:16:09.258Z,25.80
2018-06-30T11:18:45.572Z,26.00
2018-06-30T11:21:25.257Z,26.20
2018-06-30T11:24:00.059Z,26.20
2018-06-30T11:26:35.190Z,26.10
2018-06-30T11:29:09.235Z,26.10
2018-06-30T11:31:44.012Z,26.30
2018-06-30T11:34:18.573Z,26.60
2018-06-30T11:36:52.411Z,26.60
2018-06-30T11:39:26.182Z,26.60
2018-06-30T11:41:59.949Z,26.70
2018-06-30T11:44:33.822Z,26.90
2018-06-30T11:47:08.021Z,27.20
2018-06-30T11:49:41.846Z,27.50
2018-06-30T11:52:15.586Z,27.60
2018-06-30T11:54:49.371Z,27.70
2018-06-30T11:57:23.275Z,27.50
2018-06-30T11:59:57.083Z,27.30
2018-06-30T12:02:30.950Z,26.90
2018-06-30T12:05:04.872Z,26.80
2018-06-30T12:07:38.649Z,26.80
2018-06-30T12:10:12.459Z,26.90
2018-06-30T12:12:46.332Z,27.00
2018-06-30T12:15:20.062Z,27.00
2018-06-30T12:17:53.836Z,27.10
2018-06-30T12:20:27.731Z,27.10
2018-06-30T12:23:01.470Z,26.90
2018-06-30T12:25:35.311Z,26.60
2018-06-30T12:28:09.317Z,26.30
2018-06-30T12:30:43.184Z,26.20
2018-06-30T12:33:17.016Z,26.10
2018-06-30T12:35:52.764Z,26.00
2018-06-30T12:38:27.361Z,25.90
2018-06-30T12:41:01.245Z,26.00
2018-06-30T12:43:38.047Z,26.40
2018-06-30T12:46:12.694Z,26.90
2018-06-30T12:48:49.904Z,27.30
2018-06-30T12:51:24.039Z,27.70
2018-06-30T12:56:32.387Z,27.80
2018-06-30T12:59:06.155Z,27.70
2018-06-30T13:01:39.923Z,27.60
2018-06-30T13:04:13.662Z,27.50
2018-06-30T13:09:20.605Z,28.00
2018-06-30T13:11:54.363Z,28.30
2018-06-30T13:14:28.081Z,28.60
2018-06-30T13:17:01.907Z,28.50
2018-06-30T13:19:36.799Z,28.40
2018-06-30T13:22:12.305Z,28.40
2018-06-30T13:24:46.949Z,28.20
2018-06-30T13:27:23.253Z,27.90
2018-06-30T13:30:01.460Z,27.60
2018-06-30T13:32:38.777Z,27.30
2018-06-30T13:35:15.133Z,27.00
2018-06-30T13:37:51.031Z,27.10
2018-06-30T13:40:24.979Z,27.40
2018-06-30T13:43:00.579Z,27.80
2018-06-30T13:45:37.273Z,28.00
2018-06-30T13:48:12.976Z,27.90
2018-06-30T13:50:48.122Z,27.80
2018-06-30T13:53:23.359Z,27.60
2018-06-30T13:55:58.899Z,27.40
2018-06-30T13:58:32.822Z,27.40
2018-06-30T14:01:06.668Z,27.90
2018-06-30T14:03:40.531Z,28.30
2018-06-30T14:06:14.309Z,28.80
2018-06-30T14:08:48.077Z,28.90
2018-06-30T14:11:21.893Z,28.70
2018-06-30T14:13:55.783Z,28.60
2018-06-30T14:16:29.583Z,28.80
2018-06-30T14:19:03.294Z,28.90
2018-06-30T14:21:37.171Z,28.90
2018-06-30T14:24:10.935Z,29.20
2018-06-30T14:26:44.819Z,29.50
2018-06-30T14:29:18.607Z,29.80
2018-06-30T14:31:52.901Z,30.20
2018-06-30T14:34:26.884Z,30.50
2018-06-30T14:37:00.695Z,30.30
2018-06-30T14:39:34.471Z,30.00
2018-06-30T14:42:08.366Z,29.80
2018-06-30T14:44:42.212Z,29.90
2018-06-30T14:47:16.085Z,30.20
2018-06-30T14:49:49.774Z,30.50
2018-06-30T14:52:23.588Z,30.70
2018-06-30T14:54:57.412Z,31.00
2018-06-30T14:57:31.331Z,31.20
2018-06-30T15:00:05.331Z,31.40
2018-06-30T15:02:39.339Z,31.60
2018-06-30T15:05:13.556Z,31.80
2018-06-30T15:07:47.367Z,31.90
2018-06-30T15:10:21.160Z,31.80
2018-06-30T15:12:54.918Z,31.70
2018-06-30T15:15:28.666Z,31.40
2018-06-30T15:18:02.483Z,31.00
2018-06-30T15:20:36.418Z,30.60
2018-06-30T15:23:10.311Z,30.60
2018-06-30T15:25:44.113Z,30.90
2018-06-30T15:28:17.892Z,31.20
2018-06-30T15:30:51.719Z,31.40
2018-06-30T15:33:25.575Z,31.60
2018-06-30T15:35:59.353Z,31.60
2018-06-30T15:38:33.175Z,31.70
2018-06-30T15:41:07.100Z,31.70
2018-06-30T15:43:40.908Z,31.70
2018-06-30T15:46:14.708Z,31.70
2018-06-30T15:48:48.533Z,31.70
2018-06-30T15:51:22.331Z,31.40
2018-06-30T15:53:56.136Z,31.10
2018-06-30T15:56:30.006Z,31.00
2018-06-30T15:59:03.975Z,31.00
2018-06-30T16:01:37.814Z,31.00
2018-06-30T16:04:11.628Z,31.10
2018-06-30T16:06:45.607Z,31.10
2018-06-30T16:09:19.479Z,31.10
2018-06-30T16:11:53.229Z,31.10
2018-06-30T16:14:27.091Z,31.10
2018-06-30T16:17:00.804Z,31.10
2018-06-30T16:19:34.518Z,31.10
2018-06-30T16:22:08.396Z,31.20
2018-06-30T16:24:42.212Z,31.20
2018-06-30T16:27:16.014Z,31.30
2018-06-30T16:29:49.765Z,31.30
2018-06-30T16:32:23.646Z,31.20
2018-06-30T16:34:57.471Z,31.10
2018-06-30T16:37:31.197Z,30.90
2018-06-30T16:40:04.994Z,30.40
2018-06-30T16:42:38.716Z,30.10
2018-06-30T16:45:12.692Z,30.10
2018-06-30T16:47:46.474Z,30.20
2018-06-30T16:50:20.194Z,30.30
2018-06-30T16:52:54.213Z,30.60
2018-06-30T16:55:27.952Z,30.70
2018-06-30T16:58:01.786Z,30.80
2018-06-30T17:00:37.411Z,30.60
2018-06-30T17:03:11.229Z,30.50
2018-06-30T17:05:45.006Z,30.40
2018-06-30T17:08:18.994Z,30.30
2018-06-30T17:10:52.807Z,30.10
2018-06-30T17:13:26.687Z,29.80
2018-06-30T17:16:00.449Z,29.50
2018-06-30T17:18:34.401Z,29.10
2018-06-30T17:21:08.259Z,28.90
2018-06-30T17:23:42.245Z,28.70
2018-06-30T17:26:16.126Z,28.50
2018-06-30T17:28:50.046Z,28.30
2018-06-30T17:31:23.822Z,28.10
2018-06-30T17:33:57.767Z,27.90
2018-06-30T17:36:31.554Z,27.80
2018-06-30T17:39:07.129Z,27.60
2018-06-30T17:41:41.655Z,27.40
2018-06-30T17:44:15.468Z,27.30
2018-06-30T17:46:49.345Z,27.20
2018-06-30T17:49:23.230Z,27.10
2018-06-30T17:51:56.965Z,26.90
2018-06-30T17:54:30.851Z,26.70
2018-06-30T17:57:04.676Z,26.60
2018-06-30T17:59:38.543Z,26.50
2018-06-30T18:02:12.301Z,26.40
2018-06-30T18:04:46.089Z,26.20
2018-06-30T18:07:20.029Z,26.00
2018-06-30T18:09:53.900Z,25.90
2018-06-30T18:12:27.754Z,25.70
2018-06-30T18:15:01.690Z,25.60
2018-06-30T18:17:35.389Z,25.50
2018-06-30T18:20:09.302Z,25.40
2018-06-30T18:22:43.108Z,25.30
2018-06-30T18:25:17.020Z,25.30
2018-06-30T18:27:50.922Z,25.20
2018-06-30T18:30:24.669Z,25.10
2018-06-30T18:32:58.575Z,25.00
2018-06-30T18:35:32.377Z,24.80
2018-06-30T18:38:06.265Z,24.70
2018-06-30T18:40:40.038Z,24.70
2018-06-30T18:43:13.834Z,24.60
2018-06-30T18:45:47.607Z,24.40
2018-06-30T18:48:21.504Z,24.30
2018-06-30T18:50:55.296Z,24.20
2018-06-30T18:53:29.095Z,24.10
2018-06-30T18:56:02.978Z,24.00
2018-06-30T18:58:36.789Z,23.90
2018-06-30T19:01:10.613Z,23.80
2018-06-30T19:03:44.383Z,23.80
2018-06-30T19:06:18.210Z,23.70
2018-06-30T19:08:52.066Z,23.60
2018-06-30T19:11:25.903Z,23.50
2018-06-30T19:13:59.719Z,23.40
2018-06-30T19:16:33.540Z,23.30
2018-06-30T19:19:07.904Z,23.30
2018-06-30T19:21:41.742Z,23.20
2018-06-30T19:24:15.491Z,23.10
2018-06-30T19:26:49.442Z,23.00
2018-06-30T19:29:23.201Z,22.90
2018-06-30T19:31:57.109Z,22.90
2018-06-30T19:34:31.013Z,22.80
2018-06-30T19:37:04.829Z,22.70
2018-06-30T19:39:38.596Z,22.60
2018-06-30T19:42:12.563Z,22.50
2018-06-30T19:44:46.406Z,22.40
2018-06-30T19:47:20.359Z,22.30
2018-06-30T19:49:54.374Z,22.30
2018-06-30T19:52:28.187Z,22.20
2018-06-30T19:55:01.943Z,22.10
2018-06-30T19:57:35.805Z,22.00
2018-06-30T20:00:10.062Z,21.90
2018-06-30T20:02:43.814Z,21.80
2018-06-30T20:05:17.584Z,21.80
2018-06-30T20:07:57.078Z,21.70
2018-06-30T20:10:30.903Z,21.60
2018-06-30T20:13:04.770Z,21.60
2018-06-30T20:15:38.543Z,21.50
2018-06-30T20:18:12.377Z,21.40
2018-06-30T20:20:46.420Z,21.30
2018-06-30T20:23:20.223Z,21.30
2018-06-30T20:25:53.957Z,21.20
2018-06-30T20:28:27.708Z,21.00
2018-06-30T20:31:01.536Z,20.90
2018-06-30T20:33:35.286Z,20.90
2018-06-30T20:36:09.161Z,20.80
2018-06-30T20:38:42.909Z,20.80
2018-06-30T20:41:16.743Z,20.70
2018-06-30T20:43:50.484Z,20.60
2018-06-30T20:46:24.310Z,20.60
2018-06-30T20:48:58.071Z,20.50
2018-06-30T20:51:31.842Z,20.40
2018-06-30T20:54:05.695Z,20.40
2018-06-30T20:56:39.589Z,20.30
2018-06-30T20:59:13.539Z,20.20
2018-06-30T21:01:47.331Z,20.10
2018-06-30T21:04:21.100Z,20.10
2018-06-30T21:06:54.895Z,20.00
2018-06-30T21:09:28.613Z,20.00
2018-06-30T21:12:02.482Z,19.90
2018-06-30T21:14:36.287Z,19.80
2018-06-30T21:17:10.191Z,19.80
2018-06-30T21:19:43.961Z,19.70
2018-06-30T21:22:17.781Z,19.70
2018-06-30T21:24:51.766Z,19.60
2018-06-30T21:27:25.603Z,19.60
2018-06-30T21:29:59.353Z,19.50
2018-06-30T21:32:34.119Z,19.50
2018-06-30T21:35:09.001Z,19.40
2018-06-30T21:37:43.145Z,19.40
2018-06-30T21:40:17.098Z,19.40
2018-06-30T21:42:50.958Z,19.30
2018-06-30T21:45:24.900Z,19.30
2018-06-30T21:47:58.700Z,19.20
2018-06-30T21:50:32.532Z,19.10
2018-06-30T21:53:06.418Z,19.00
2018-06-30T21:55:40.618Z,19.00
2018-06-30T21:58:14.500Z,18.90
2018-06-30T22:00:53.716Z,18.90
2018-06-30T22:03:28.683Z,18.80
2018-06-30T22:06:02.464Z,18.80
2018-06-30T22:08:36.389Z,18.80
2018-06-30T22:11:13.119Z,18.70
2018-06-30T22:13:47.373Z,18.70
2018-06-30T22:16:22.020Z,18.60
2018-06-30T22:18:55.915Z,18.50
2018-06-30T22:21:29.768Z,18.50
2018-06-30T22:24:03.466Z,18.40
2018-06-30T22:26:37.241Z,18.30
2018-06-30T22:29:10.954Z,18.30
2018-06-30T22:31:44.720Z,18.30
2018-06-30T22:34:18.547Z,18.20
2018-06-30T22:36:52.383Z,18.10
2018-06-30T22:39:47.471Z,18.00
2018-06-30T22:42:21.268Z,17.90
2018-06-30T22:44:55.010Z,17.80
2018-06-30T22:47:29.126Z,17.80
2018-06-30T22:50:03.682Z,17.80
2018-06-30T22:52:38.024Z,17.70
2018-06-30T22:55:11.854Z,17.70
2018-06-30T22:57:45.649Z,17.70
2018-06-30T23:00:21.313Z,17.60
2018-06-30T23:02:55.131Z,17.60
2018-06-30T23:05:28.893Z,17.50
2018-06-30T23:08:02.620Z,17.50
2018-06-30T23:10:36.643Z,17.50
2018-06-30T23:13:10.428Z,17.40
2018-06-30T23:15:44.219Z,17.40
2018-06-30T23:18:17.928Z,17.40
2018-06-30T23:20:51.704Z,17.30
2018-06-30T23:23:25.562Z,17.30
2018-06-30T23:25:59.357Z,17.20
2018-06-30T23:28:33.123Z,17.10
2018-06-30T23:31:06.832Z,17.10
2018-06-30T23:33:40.657Z,17.10
2018-06-30T23:36:14.485Z,17.00
2018-06-30T23:38:48.263Z,17.00
2018-06-30T23:41:22.065Z,16.90
2018-06-30T23:43:55.966Z,16.90
2018-06-30T23:46:29.696Z,16.90
2018-06-30T23:49:03.716Z,16.90
2018-06-30T23:51:37.522Z,16.80
2018-06-30T23:54:11.390Z,16.80
2018-06-30T23:56:45.252Z,16.80
2018-06-30T23:59:19.110Z,16.80
